Flight Track Log - Related Links

Times and Time Zones

All times are in EDT time to prevent confusion due to time zone crossing. See the N585M flight status page for this flight to view local times or setup timezone preferences in your user account.

Time Position Orientation Groundspeed Altitude Reporting Facility
EDT Latitude Longitude Course Direction KTS MPH feet Rate Location/Type
Wed 08:14:38 PM 36.0761 -115.1683 270° West 185 213 3,200  Level Los Angeles Center
Wed 08:15:33 PM 36.0761 -115.2375 270° West 232 267 5,100 2,182 Climbing Los Angeles Center
Wed 08:16:17 PM 36.0975 -115.2850 299° West 261 300 6,800 2,557 Climbing Los Angeles Center
Wed 08:16:34 PM 36.1233 -115.2964 340° North 271 312 7,700 2,323 Climbing Los Angeles Center
Wed 08:17:19 PM 36.1694 -115.2689 26° Northeast 290 334 9,200 2,361 Climbing Los Angeles Center
Wed 08:17:35 PM 36.1828 -115.2317 66° East 305 351 10,100 2,129 Climbing Los Angeles Center
Wed 08:18:21 PM 36.1969 -115.1675 75° East 313 360 11,400 1,944 Climbing Los Angeles Center
Wed 08:19:23 PM 36.1983 -115.0300 89° East 330 380 13,600 1,984 Climbing Los Angeles Center
Wed 08:20:25 PM 36.1994 -114.9056 89° East 353 406 15,500 1,790 Climbing Los Angeles Center
Wed 08:21:27 PM 36.1997 -114.7769 90° East 368 423 17,300 1,742 Climbing Los Angeles Center
Wed 08:22:29 PM 36.1989 -114.6444 90° East 380 437 19,100 1,742 Climbing Los Angeles Center
Wed 08:23:31 PM 36.1964 -114.5092 91° East 389 448 20,900 1,728 Climbing Los Angeles Center
Wed 08:24:34 PM 36.1947 -114.3694 91° East 400 460 22,700 1,920 Climbing Los Angeles Center
Wed 08:25:36 PM 36.1953 -114.1975 90° East 414 476 24,900 1,935 Climbing Los Angeles Center
Wed 08:26:38 PM 36.2150 -114.0511 80° East 426 490 26,700 1,742 Climbing Los Angeles Center
Wed 08:27:40 PM 36.2339 -113.9000 81° East 439 505 28,500 1,742 Climbing Los Angeles Center
Wed 08:28:42 PM 36.2522 -113.7444 82° East 451 519 30,300 1,645 Climbing Los Angeles Center
Wed 08:29:44 PM 36.2714 -113.5850 81° East 463 533 31,900 1,452 Climbing Los Angeles Center
Wed 08:30:46 PM 36.2897 -113.4194 82° East 478 550 33,300 1,200 Climbing Los Angeles Center
Wed 08:31:49 PM 36.3117 -113.2417 81° East 497 572 34,400 1,065 Climbing Los Angeles Center
Wed 08:32:50 PM 36.3783 -113.0458 67° East 513 590 35,500 1,016 Climbing Los Angeles Center
Wed 08:33:53 PM 36.4386 -112.8836 65° Northeast 518 596 36,500 912 Climbing Los Angeles Center
Wed 08:34:55 PM 36.4992 -112.7197 65° Northeast 523 602 37,400 919 Climbing Los Angeles Center
Wed 08:35:57 PM 36.5578 -112.5578 66° East 519 597 38,400 919 Climbing Los Angeles Center
Wed 08:36:59 PM 36.6172 -112.3969 65° Northeast 515 593 39,300 968 Climbing Los Angeles Center
Wed 08:38:01 PM 36.6858 -112.2061 66° East 509 586 40,400 953 Climbing Los Angeles Center
Wed 08:38:46 PM 36.7200 -112.1147 65° Northeast 503 579 41,000 336 Climbing Denver Center
Wed 08:39:48 PM 36.7875 -111.9253 66° East 501 577 41,000  Level Denver Center
Wed 08:40:50 PM 36.8450 -111.7639 66° East 509 586 41,000  Level Denver Center
Wed 08:41:52 PM 36.9050 -111.6000 65° Northeast 518 596 41,000  Level Denver Center
Wed 08:42:53 PM 36.9517 -111.4678 66° East 521 600 41,000  Level Denver Center
Wed 08:43:55 PM 37.0339 -111.2769 62° Northeast 523 602 41,000  Level Denver Center
Wed 08:44:57 PM 37.1158 -111.1269 56° Northeast 526 605 41,000  Level Denver Center
Wed 08:45:59 PM 37.2114 -110.9456 56° Northeast 523 602 41,000  Level Denver Center
Wed 08:47:01 PM 37.2919 -110.7950 56° Northeast 522 601 41,000  Level Denver Center
Wed 08:48:03 PM 37.3711 -110.6450 56° Northeast 518 596 41,000  Level Denver Center
Wed 08:49:05 PM 37.4500 -110.4956 56° Northeast 515 593 41,000  Level Denver Center
Wed 08:50:06 PM 37.5383 -110.3250 57° Northeast 516 594 41,000  Level Denver Center
Wed 08:51:08 PM 37.6142 -110.1819 56° Northeast 512 589 41,000  Level Denver Center
Wed 08:52:10 PM 37.6894 -110.0364 57° Northeast 516 594 41,000  Level Denver Center
Wed 08:53:12 PM 37.7758 -109.8667 57° Northeast 515 593 41,000  Level Denver Center
Wed 08:54:26 PM 37.8761 -109.6731 57° Northeast 513 590 41,000  Level Denver Center
Wed 08:55:28 PM 37.9500 -109.5272 57° Northeast 514 592 41,000  Level Denver Center
Wed 08:56:30 PM 38.0236 -109.3828 57° Northeast 511 588 41,000  Level Denver Center
Wed 08:57:32 PM 38.1031 -109.2258 57° Northeast 509 586 41,000  Level Denver Center
Wed 08:58:33 PM 38.1886 -109.0519 58° Northeast 517 595 41,000  Level Denver Center
Wed 08:59:35 PM 38.2628 -108.9078 57° Northeast 513 590 41,000  Level Denver Center
Wed 09:00:37 PM 38.3489 -108.7353 57° Northeast 517 595 41,000  Level Denver Center
Wed 09:01:39 PM 38.4217 -108.5869 58° Northeast 518 596 41,000  Level Denver Center
Wed 09:02:41 PM 38.5075 -108.4167 57° Northeast 513 590 41,000  Level Denver Center
Wed 09:03:43 PM 38.5800 -108.2675 58° Northeast 516 594 41,000  Level Denver Center
Wed 09:04:44 PM 38.6647 -108.0947 58° Northeast 516 594 41,000  Level Denver Center
Wed 09:05:46 PM 38.7361 -107.9472 58° Northeast 512 589 41,000  Level Denver Center
Wed 09:06:48 PM 38.8200 -107.7736 58° Northeast 514 592 41,000  Level Denver Center
Wed 09:07:50 PM 38.8925 -107.6250 58° Northeast 514 592 41,000  Level Denver Center
Wed 09:08:52 PM 38.9744 -107.4533 58° Northeast 507 583 41,000  Level Denver Center
Wed 09:09:53 PM 39.0467 -107.3036 58° Northeast 514 592 41,000  Level Denver Center
Wed 09:10:55 PM 39.1186 -107.1522 58° Northeast 518 596 41,000  Level Denver Center
Wed 09:11:57 PM 39.2025 -106.9750 59° Northeast 519 597 41,000  Level Denver Center
Wed 09:12:59 PM 39.2739 -106.8250 58° Northeast 516 594 41,000  Level Denver Center
Wed 09:14:00 PM 39.3556 -106.6483 59° Northeast 514 592 41,000  Level Denver Center
Wed 09:15:02 PM 39.4200 -106.5072 59° Northeast 514 592 41,000  Level Denver Center
Wed 09:16:04 PM 39.4925 -106.3514 59° Northeast 518 596 41,000  Level Denver Center
Wed 09:17:06 PM 39.5803 -106.1603 59° Northeast 516 594 41,000  Level Denver Center
Wed 09:18:07 PM 39.6531 -106.0003 59° Northeast 516 594 41,000  Level Denver Center
Wed 09:19:09 PM 39.7242 -105.8400 60° Northeast 512 589 41,000  Level Denver Center
Wed 09:20:11 PM 39.8033 -105.6633 60° Northeast 516 594 41,000  Level Denver Center
Wed 09:21:13 PM 39.8772 -105.5033 59° Northeast 518 596 41,000  Level Denver Center
Wed 09:22:15 PM 39.9542 -105.3319 60° Northeast 512 589 41,000  Level Denver Center
Wed 09:23:16 PM 40.0275 -105.1678 60° Northeast 523 602 41,000  Level Denver Center
Wed 09:24:18 PM 40.0989 -105.0061 60° Northeast 518 596 41,000  Level Denver Center
Wed 09:25:32 PM 40.1772 -104.8294 60° Northeast 523 602 41,000  Level Denver Center
Wed 09:26:34 PM 40.2653 -104.6261 60° Northeast 520 598 41,000  Level Denver Center
Wed 09:27:36 PM 40.3367 -104.4600 61° Northeast 523 602 41,000  Level Denver Center
Wed 09:28:38 PM 40.4078 -104.2953 60° Northeast 521 600 41,000  Level Denver Center
Wed 09:29:39 PM 40.4836 -104.1181 61° Northeast 518 596 41,000  Level Denver Center
Wed 09:30:41 PM 40.5553 -103.9558 60° Northeast 502 578 41,000  Level Denver Center
Wed 09:31:43 PM 40.6228 -103.7964 61° Northeast 520 598 41,000  Level Denver Center
Wed 09:32:45 PM 40.7017 -103.6106 61° Northeast 522 601 41,000  Level Denver Center
Wed 09:33:46 PM 40.7697 -103.4483 61° Northeast 530 610 41,000  Level Denver Center
Wed 09:34:48 PM 40.8481 -103.2639 61° Northeast 518 596 41,000  Level Denver Center
Wed 09:35:50 PM 40.9136 -103.1042 61° Northeast 518 596 41,000  Level Denver Center
Wed 09:36:52 PM 40.9881 -102.9258 61° Northeast 519 597 41,000  Level Denver Center
Wed 09:37:54 PM 41.0533 -102.7658 62° Northeast 517 595 41,000  Level Denver Center
Wed 09:38:55 PM 41.1297 -102.5778 62° Northeast 518 596 41,000  Level Denver Center
Wed 09:39:57 PM 41.1964 -102.4181 61° Northeast 517 595 41,000  Level Denver Center
Wed 09:40:59 PM 41.2731 -102.2281 62° Northeast 521 600 41,000  Level Denver Center
Wed 09:42:01 PM 41.3381 -102.0664 62° Northeast 518 596 41,000  Level Denver Center
Wed 09:43:03 PM 41.4022 -101.9050 62° Northeast 515 593 41,000  Level Denver Center
Wed 09:44:04 PM 41.4778 -101.7158 62° Northeast 516 594 41,000  Level Denver Center
Wed 09:45:06 PM 41.5411 -101.5533 62° Northeast 515 593 41,000  Level Denver Center
Wed 09:46:08 PM 41.6156 -101.3633 62° Northeast 515 593 41,000  Level Denver Center
Wed 09:47:10 PM 41.6797 -101.2000 62° Northeast 518 596 41,000  Level Denver Center
Wed 09:48:11 PM 41.7533 -101.0103 62° Northeast 513 590 41,000  Level Denver Center
Wed 09:49:13 PM 41.8178 -100.8447 62° Northeast 518 596 41,000  Level Denver Center
Wed 09:50:15 PM 41.8797 -100.6806 63° Northeast 516 594 41,000  Level Denver Center
Wed 09:51:16 PM 41.9531 -100.4869 63° Northeast 520 598 41,000  Level Denver Center
Wed 09:52:18 PM 42.0161 -100.3208 63° Northeast 521 600 41,000  Level Denver Center
Wed 09:53:20 PM 42.0892 -100.1258 63° Northeast 521 600 41,000  Level Denver Center
Wed 09:54:33 PM 42.1525 -99.9589 63° Northeast 522 601 41,000  Level Denver Center
Wed 09:55:35 PM 42.2350 -99.7356 63° Northeast 521 600 41,000  Level Denver Center
Wed 09:56:37 PM 42.3019 -99.5536 64° Northeast 517 595 41,000  Level Denver Center
Wed 09:57:39 PM 42.3667 -99.3775 64° Northeast 521 600 41,000  Level Denver Center
Wed 09:58:40 PM 42.4308 -99.2042 63° Northeast 515 593 41,000  Level Denver Center
Wed 09:59:42 PM 42.4936 -99.0272 64° Northeast 518 596 41,000  Level Denver Center
Wed 10:00:43 PM 42.5583 -98.8486 64° Northeast 523 602 41,000  Level Denver Center
Wed 10:01:52 PM 42.6353 -98.6339 64° Northeast 526 605 41,000  Level Minneapolis Center
Wed 10:02:54 PM 42.6986 -98.4578 64° Northeast 521 600 41,000  Level Minneapolis Center
Wed 10:03:55 PM 42.7606 -98.2800 65° Northeast 520 598 41,000  Level Minneapolis Center
Wed 10:04:57 PM 42.8219 -98.1042 64° Northeast 520 598 41,000  Level Minneapolis Center
Wed 10:05:58 PM 42.8847 -97.9272 64° Northeast 520 598 41,000  Level Minneapolis Center
Wed 10:07:00 PM 42.9456 -97.7483 65° Northeast 520 598 41,000  Level Minneapolis Center
Wed 10:08:01 PM 43.0064 -97.5706 65° Northeast 519 597 41,000  Level Minneapolis Center
Wed 10:09:03 PM 43.0794 -97.3567 65° Northeast 519 597 41,000  Level Minneapolis Center
Wed 10:10:04 PM 43.1394 -97.1778 65° Northeast 519 597 41,000  Level Minneapolis Center
Wed 10:11:06 PM 43.2003 -96.9981 65° Northeast 521 600 41,000  Level Minneapolis Center
Wed 10:12:07 PM 43.2603 -96.8169 65° Northeast 523 602 41,000  Level Minneapolis Center
Wed 10:13:09 PM 43.3200 -96.6364 66° East 524 603 41,000  Level Minneapolis Center
Wed 10:14:11 PM 43.3797 -96.4553 66° East 524 603 41,000  Level Minneapolis Center
Wed 10:15:12 PM 43.4403 -96.2725 65° Northeast 527 606 41,000  Level Minneapolis Center
Wed 10:16:14 PM 43.5106 -96.0539 66° East 527 606 41,000  Level Minneapolis Center
Wed 10:17:27 PM 43.5703 -95.8708 66° East 529 609 41,000  Level Minneapolis Center
Wed 10:18:29 PM 43.6400 -95.6519 66° East 525 604 41,000  Level Minneapolis Center
Wed 10:19:30 PM 43.6981 -95.4672 66° East 528 608 41,000  Level Minneapolis Center
Wed 10:20:32 PM 43.7567 -95.2847 66° East 525 604 41,000  Level Minneapolis Center
Wed 10:21:33 PM 43.8136 -95.0994 67° East 527 606 41,000  Level Minneapolis Center
Wed 10:22:35 PM 43.8819 -94.8781 67° East 526 605 41,000  Level Minneapolis Center
Wed 10:23:36 PM 43.9386 -94.6928 67° East 526 605 41,000  Level Minneapolis Center
Wed 10:24:38 PM 43.9964 -94.5083 66° East 524 603 41,000 -585 Level Minneapolis Center
Wed 10:25:39 PM 44.0539 -94.3231 67° East 524 603 39,800 -1,422 Descending Minneapolis Center
Wed 10:26:53 PM 44.1033 -94.1519 68° East 517 595 37,800 -2,250 Descending Minneapolis Center
Wed 10:27:55 PM 44.1789 -93.9014 67° East 505 581 34,700 -2,585 Descending Minneapolis Center
Wed 10:28:56 PM 44.2328 -93.7222 67° East 505 581 32,500 -2,195 Descending Minneapolis Center
Wed 10:29:58 PM 44.2858 -93.5406 68° East 509 586 30,200 -2,439 Descending Minneapolis Center
Wed 10:30:59 PM 44.3400 -93.3542 68° East 522 601 27,500 -2,607 Descending Minneapolis Center
Wed 10:32:00 PM 44.3922 -93.1761 68° East 506 582 24,900 -2,585 Descending Minneapolis Center
Wed 10:33:02 PM 44.4400 -93.0094 68° East 477 549 22,200 -2,634 Descending Minneapolis Center
Wed 10:34:03 PM 44.4861 -92.8500 68° East 454 522 19,500 -2,557 Descending Minneapolis Center
Wed 10:35:04 PM 44.5281 -92.6939 69° East 437 503 17,000 -2,683 Descending Minneapolis Center
Wed 10:36:06 PM 44.5736 -92.5175 70° East 406 467 14,000 -2,613 Descending Minneapolis Center
Wed 10:37:08 PM 44.6106 -92.3761 70° East 391 450 11,600 -1,951 Descending Minneapolis Center
Wed 10:38:09 PM 44.6450 -92.2458 70° East 362 417 10,000 -1,230 Descending Minneapolis Center
Wed 10:39:10 PM 44.6733 -92.1372 70° East 299 344 9,100 -1,366 Descending Minneapolis Center
Wed 10:40:12 PM 44.6972 -92.0381 71° East 271 312 7,200 -1,707 Descending Minneapolis Center
Wed 10:41:13 PM 44.7286 -91.9178 70° East 273 314 5,600 -1,475 Descending Minneapolis Center
Wed 10:42:14 PM 44.7519 -91.8233 71° East 262 302 4,200 -1,171 Descending Minneapolis Center
Wed 10:43:16 PM 44.7692 -91.7506 72° East 256 295 3,200 -585 Descending Minneapolis Center
Wed 10:44:17 PM 44.7969 -91.6408 70° East 251 289 3,000 -344 Descending Minneapolis Center
Wed 10:45:18 PM 44.8136 -91.5667 72° East 227 261 2,500 -492 Descending Minneapolis Center
Wed 10:47:00 PM 44.8500 -91.4833 65° Northeast  Level FlightAware Approximate
Wed 10:54:00 PM 44.8658 -91.4843 65° Northeast  Level Estimated

Login

Don't have an account? Register now (free) for customized features, flight alerts, and more!